Time;durP1;ratioP1;P1;durP2;ratioP2;P2;SDS_P1;SDS_P2;PMS_P1;PMS_P2;Temp;Humidity;BMP_temperature;BMP_pressure;BME280_temperature;BME280_humidity;BME280_pressure;Samples;Min_cycle;Max_cycle;Signal;HPM_P1;HPM_P2
2024/04/24 00:02:08;;;;;;;13.40;12.15;;;;;;;4.20;69.46;97647.28;5177630;27;20542;-75
2024/04/24 00:04:34;;;;;;;12.73;11.63;;;;;;;4.18;69.56;97648.53;5190956;27;20011;-74
2024/04/24 00:06:59;;;;;;;14.05;12.65;;;;;;;4.17;69.72;97652.25;5220383;27;20015;-75
2024/04/24 00:09:24;;;;;;;13.48;12.27;;;;;;;4.08;70.01;97633.03;5197820;27;20000;-74
2024/04/24 00:11:50;;;;;;;14.02;12.73;;;;;;;4.15;70.01;97639.13;5174725;27;20008;-74
2024/04/24 00:14:16;;;;;;;12.05;10.95;;;;;;;4.15;69.93;97636.47;5207857;27;20008;-75
2024/04/24 00:16:42;;;;;;;12.95;11.85;;;;;;;4.14;70.32;97637.50;5178301;27;20018;-74
2024/04/24 00:19:07;;;;;;;14.85;13.45;;;;;;;3.83;72.05;97653.50;5216400;27;20022;-73
2024/04/24 00:21:32;;;;;;;14.65;13.20;;;;;;;3.66;72.18;97639.09;5195615;27;20346;-74
2024/04/24 00:23:58;;;;;;;15.27;13.88;;;;;;;3.72;71.95;97643.53;5218170;27;20014;-74
2024/04/24 00:26:23;;;;;;;14.20;12.85;;;;;;;3.71;71.39;97625.94;5214459;27;20043;-74
2024/04/24 00:28:48;;;;;;;12.50;11.38;;;;;;;3.94;71.54;97633.38;5178839;27;20015;-73
2024/04/24 00:31:14;;;;;;;12.90;11.70;;;;;;;3.96;71.51;97617.97;5206808;27;20011;-73
2024/04/24 00:33:39;;;;;;;14.10;12.80;;;;;;;4.00;71.46;97617.31;5212085;27;20339;-74
2024/04/24 00:36:05;;;;;;;12.95;11.65;;;;;;;4.05;71.46;97625.50;5214462;27;19999;-74
2024/04/24 00:38:30;;;;;;;14.43;13.13;;;;;;;3.66;72.61;97636.44;5185845;27;20004;-73
2024/04/24 00:40:56;;;;;;;13.43;12.02;;;;;;;3.46;73.61;97638.38;5198535;27;19995;-74
2024/04/24 00:43:21;;;;;;;13.88;12.57;;;;;;;3.68;73.58;97625.56;5184526;27;20011;-73
2024/04/24 00:45:46;;;;;;;13.55;12.35;;;;;;;3.71;72.70;97620.59;5214892;27;20411;-73
2024/04/24 00:48:12;;;;;;;14.13;12.70;;;;;;;3.71;73.30;97631.25;5181518;27;20003;-73
2024/04/24 00:50:39;;;;;;;13.73;12.43;;;;;;;3.77;72.60;97619.75;5209578;27;20004;-75
2024/04/24 00:53:04;;;;;;;13.00;11.75;;;;;;;3.79;73.15;97622.19;5220004;27;20010;-77
2024/04/24 00:55:31;;;;;;;13.45;12.05;;;;;;;3.79;72.73;97607.03;5156600;27;20343;-75
2024/04/24 00:57:57;;;;;;;13.60;12.20;;;;;;;3.90;72.84;97611.66;5182369;27;20010;-76
2024/04/24 01:00:22;;;;;;;12.65;11.40;;;;;;;3.94;73.03;97609.41;5210173;27;19999;-74
2024/04/24 01:02:48;;;;;;;13.32;12.05;;;;;;;4.03;73.18;97608.09;5211874;27;20133;-75
2024/04/24 01:05:14;;;;;;;14.35;12.98;;;;;;;4.10;72.87;97615.00;5209737;27;20503;-74
2024/04/24 01:07:40;;;;;;;11.95;10.75;;;;;;;4.04;73.10;97597.22;5206532;27;20100;-73
2024/04/24 01:10:15;;;;;;;13.18;11.93;;;;;;;4.14;72.92;97605.53;5187016;27;20336;-74
2024/04/24 01:12:40;;;;;;;13.35;12.05;;;;;;;4.07;72.83;97587.97;5187479;27;20022;-74
2024/04/24 01:15:06;;;;;;;13.65;12.45;;;;;;;4.24;72.85;97606.88;5186030;27;20031;-73
2024/04/24 01:17:32;;;;;;;14.63;13.13;;;;;;;4.17;72.64;97573.13;5193152;27;20010;-73
2024/04/24 01:19:58;;;;;;;14.40;12.88;;;;;;;4.30;72.85;97592.66;5225505;27;20075;-74
2024/04/24 01:22:42;;;;;;;15.90;12.07;;;;;;;4.33;72.63;97589.56;5191091;27;20478;-73
2024/04/24 01:25:21;;;;;;;13.77;12.38;;;;;;;4.26;72.69;97581.66;5203193;27;20019;-74
2024/04/24 01:27:46;;;;;;;13.80;12.50;;;;;;;4.19;72.92;97573.72;5211409;27;20344;-73
2024/04/24 01:30:12;;;;;;;15.10;13.68;;;;;;;4.26;72.89;97575.50;5214649;27;20008;-73
2024/04/24 01:32:37;;;;;;;15.10;13.60;;;;;;;4.22;72.46;97584.97;5212142;27;20008;-74
2024/04/24 01:35:03;;;;;;;15.18;13.77;;;;;;;4.09;72.92;97565.41;5201910;27;20004;-74
2024/04/24 01:37:28;;;;;;;15.27;13.88;;;;;;;4.00;73.34;97558.72;5198265;27;20091;-74
2024/04/24 01:39:53;;;;;;;14.52;13.05;;;;;;;4.17;73.24;97567.81;5210286;27;20010;-74
2024/04/24 01:42:19;;;;;;;14.30;12.93;;;;;;;4.09;73.72;97564.59;5210214;27;20012;-74
2024/04/24 01:44:44;;;;;;;15.02;13.63;;;;;;;4.13;72.95;97553.25;5211594;27;20682;-73
2024/04/24 01:47:10;;;;;;;14.65;13.27;;;;;;;4.11;73.12;97544.69;5183164;27;20004;-73
2024/04/24 01:49:35;;;;;;;14.60;13.20;;;;;;;4.16;73.69;97560.81;5180196;27;20367;-73
2024/04/24 01:52:00;;;;;;;16.05;14.55;;;;;;;3.97;73.92;97545.00;5199849;27;20243;-74
2024/04/24 01:54:26;;;;;;;17.30;15.70;;;;;;;3.80;75.11;97571.41;5183222;27;20083;-73
2024/04/24 01:56:51;;;;;;;16.13;14.43;;;;;;;3.76;75.91;97583.50;5235617;27;20456;-73
2024/04/24 01:59:16;;;;;;;16.13;14.60;;;;;;;3.81;75.17;97570.34;5228472;27;20081;-73
2024/04/24 02:01:42;;;;;;;15.30;13.77;;;;;;;3.92;74.63;97566.19;5207319;27;20093;-73
2024/04/24 02:04:07;;;;;;;15.48;13.98;;;;;;;3.97;74.33;97567.16;5178776;27;20019;-73
2024/04/24 02:06:33;;;;;;;15.98;14.10;;;;;;;4.12;74.28;97578.28;5237495;27;20036;-74
2024/04/24 02:08:58;;;;;;;16.15;14.48;;;;;;;4.07;74.20;97556.81;5200875;27;20430;-74
2024/04/24 02:11:23;;;;;;;15.00;13.70;;;;;;;4.15;74.25;97559.19;5202614;27;20008;-74
2024/04/24 02:13:49;;;;;;;14.52;13.15;;;;;;;4.08;74.48;97541.66;5208329;27;20011;-74
2024/04/24 02:16:14;;;;;;;15.20;13.77;;;;;;;4.28;74.10;97562.75;5173539;27;20464;-74
2024/04/24 02:18:39;;;;;;;16.85;15.15;;;;;;;4.26;74.02;97551.50;5219278;27;20014;-74
2024/04/24 02:21:07;;;;;;;15.23;13.73;;;;;;;4.39;74.03;97562.06;5177611;27;20019;-74
2024/04/24 02:23:34;;;;;;;15.43;13.93;;;;;;;4.38;74.16;97558.56;5204936;27;20020;-75
2024/04/24 02:26:08;;;;;;;15.70;14.10;;;;;;;4.40;74.16;97555.69;5207786;27;20000;-74
2024/04/24 02:28:34;;;;;;;14.35;12.88;;;;;;;4.52;74.63;97559.25;5152544;27;20456;-74
2024/04/24 02:31:00;;;;;;;15.70;13.98;;;;;;;4.51;73.86;97557.59;5204687;27;20007;-73
2024/04/24 02:33:25;;;;;;;15.27;13.80;;;;;;;4.44;73.69;97540.84;5174319;27;20000;-73
2024/04/24 02:35:51;;;;;;;14.63;13.32;;;;;;;4.54;73.69;97557.16;5209943;27;20354;-73
2024/04/24 02:38:17;;;;;;;14.73;13.25;;;;;;;4.42;73.68;97530.44;5223504;27;20014;-73
2024/04/24 02:40:42;;;;;;;16.98;15.30;;;;;;;4.47;73.85;97540.44;5194637;27;20018;-73
2024/04/24 02:43:08;;;;;;;21.33;19.02;;;;;;;4.50;73.87;97545.31;5220630;27;19996;-74
2024/04/24 02:45:33;;;;;;;17.40;15.60;;;;;;;4.46;73.48;97531.59;5156010;27;20004;-74
2024/04/24 02:47:58;;;;;;;15.43;13.85;;;;;;;4.49;73.30;97535.69;5199085;27;20066;-73
2024/04/24 02:50:24;;;;;;;16.80;15.05;;;;;;;4.40;73.50;97523.69;5207275;27;20055;-73
2024/04/24 02:52:49;;;;;;;15.55;14.15;;;;;;;4.47;73.47;97537.75;5210744;27;19996;-74
2024/04/24 02:55:15;;;;;;;14.60;13.18;;;;;;;4.40;73.58;97526.34;5203379;27;20473;-74
2024/04/24 02:57:40;;;;;;;14.38;13.05;;;;;;;4.16;73.19;97491.56;5225304;27;20333;-73
2024/04/24 03:00:06;;;;;;;18.02;16.33;;;;;;;4.29;74.06;97533.25;5220547;27;20022;-74
2024/04/24 03:02:32;;;;;;;15.43;13.98;;;;;;;4.14;73.70;97512.28;5160733;27;20440;-74
2024/04/24 03:04:57;;;;;;;15.93;14.32;;;;;;;4.09;73.37;97517.44;5213768;27;20005;-74
2024/04/24 03:07:22;;;;;;;15.95;14.45;;;;;;;4.09;73.26;97505.97;5183070;27;20419;-74
2024/04/24 03:09:48;;;;;;;15.32;13.70;;;;;;;4.06;73.96;97517.88;5174586;27;20010;-74
2024/04/24 03:12:13;;;;;;;15.45;14.05;;;;;;;4.12;73.98;97525.00;5202318;27;20004;-74
2024/04/24 03:14:38;;;;;;;16.85;15.25;;;;;;;4.05;73.80;97516.25;5153393;27;20457;-74
2024/04/24 03:17:04;;;;;;;15.00;13.65;;;;;;;3.81;74.43;97493.13;5198784;27;20000;-74
2024/04/24 03:19:29;;;;;;;14.95;13.57;;;;;;;3.85;74.50;97504.97;5201860;27;20054;-74
2024/04/24 03:21:55;;;;;;;15.23;13.63;;;;;;;3.77;75.13;97507.91;5210278;27;20004;-73
2024/04/24 03:24:20;;;;;;;15.55;14.05;;;;;;;3.78;74.95;97498.09;5204406;27;20049;-73
2024/04/24 03:26:45;;;;;;;15.27;13.68;;;;;;;3.92;75.07;97516.38;5235727;27;20479;-74
2024/04/24 03:29:11;;;;;;;13.90;12.50;;;;;;;3.83;74.97;97501.72;5205404;27;20000;-73
2024/04/24 03:31:36;;;;;;;15.98;14.32;;;;;;;3.94;74.69;97498.34;5177783;27;20468;-73
2024/04/24 03:34:01;;;;;;;13.95;12.65;;;;;;;3.99;74.54;97501.13;5194827;27;20461;-73
2024/04/24 03:36:27;;;;;;;13.68;12.40;;;;;;;3.95;74.45;97483.16;5174840;27;20016;-74
2024/04/24 03:38:52;;;;;;;14.13;12.63;;;;;;;4.06;74.17;97488.56;5205579;27;20016;-73
2024/04/24 03:41:18;;;;;;;14.45;13.05;;;;;;;3.94;73.93;97477.03;5174578;27;20004;-73
2024/04/24 03:43:43;;;;;;;14.10;12.63;;;;;;;3.89;73.94;97484.88;5203523;27;20022;-74
2024/04/24 03:46:08;;;;;;;15.00;13.45;;;;;;;3.81;74.46;97493.13;5208127;27;20056;-75
2024/04/24 03:48:34;;;;;;;14.45;12.98;;;;;;;3.88;74.98;97504.53;5227647;27;20018;-75
2024/04/24 03:50:59;;;;;;;14.00;12.63;;;;;;;3.87;74.62;97486.94;5220632;27;20012;-75
2024/04/24 03:53:24;;;;;;;14.55;13.10;;;;;;;3.84;74.90;97487.38;5208737;27;20003;-74
2024/04/24 03:55:50;;;;;;;14.05;12.68;;;;;;;3.93;74.47;97496.72;5174461;27;20004;-74
2024/04/24 03:58:15;;;;;;;17.17;13.80;;;;;;;3.73;74.55;97469.47;5204453;27;20349;-75
2024/04/24 04:00:41;;;;;;;15.85;14.25;;;;;;;3.84;74.27;97508.69;5207721;27;20475;-75
2024/04/24 04:03:10;;;;;;;14.43;13.13;;;;;;;3.75;74.23;97499.34;5178072;27;20007;-75
2024/04/24 04:05:36;;;;;;;16.35;14.82;;;;;;;3.78;74.15;97514.84;5220508;27;20081;-75
2024/04/24 04:08:01;;;;;;;15.98;14.38;;;;;;;3.52;74.63;97493.81;5215374;27;20007;-75
2024/04/24 04:10:27;;;;;;;14.75;13.27;;;;;;;3.51;74.31;97489.50;5213265;27;20019;-75
2024/04/24 04:12:52;;;;;;;15.10;13.68;;;;;;;3.61;74.24;97494.34;5182376;27;20008;-75
2024/04/24 04:15:17;;;;;;;17.90;14.77;;;;;;;3.60;74.25;97512.16;5176429;27;20040;-77
2024/04/24 04:17:44;;;;;;;16.05;14.43;;;;;;;3.57;74.15;97490.47;5172955;27;20090;-75
2024/04/24 04:20:09;;;;;;;15.73;14.13;;;;;;;3.62;73.92;97493.31;5187222;27;20004;-75
2024/04/24 04:22:35;;;;;;;24.25;21.75;;;;;;;3.63;73.99;97493.09;5179061;27;20004;-75
2024/04/24 04:25:00;;;;;;;21.90;19.58;;;;;;;3.58;74.09;97476.94;5213680;27;20012;-74
2024/04/24 04:27:26;;;;;;;20.77;18.75;;;;;;;3.78;74.01;97501.53;5184493;27;21179;-74
2024/04/24 04:29:52;;;;;;;18.95;17.02;;;;;;;3.73;73.62;97488.09;5182488;27;20015;-73
2024/04/24 04:32:17;;;;;;;15.75;14.13;;;;;;;3.81;73.60;97503.78;5209339;27;20004;-74
2024/04/24 04:34:44;;;;;;;90.90;73.68;;;;;;;3.72;74.33;97491.78;5210384;27;20044;-74
2024/04/24 04:37:10;;;;;;;25.85;22.35;;;;;;;3.74;73.81;97480.91;5204732;27;20079;-72
2024/04/24 04:39:35;;;;;;;15.63;14.07;;;;;;;3.73;73.71;97485.44;5209185;27;20004;-75
2024/04/24 04:42:00;;;;;;;15.25;13.70;;;;;;;3.65;73.71;97477.72;5187983;27;20048;-74
2024/04/24 04:44:26;;;;;;;13.88;12.48;;;;;;;3.56;73.90;97470.22;5211586;21;20008;-75
2024/04/24 04:46:51;;;;;;;15.80;14.32;;;;;;;3.60;73.96;97468.72;5154334;27;20014;-74
2024/04/24 04:49:16;;;;;;;18.23;16.40;;;;;;;3.63;74.18;97462.97;5182348;27;20351;-75
2024/04/24 04:51:42;;;;;;;17.35;15.50;;;;;;;3.73;74.64;97485.44;5185581;27;20015;-73
2024/04/24 04:54:07;;;;;;;17.05;15.35;;;;;;;3.66;73.76;97458.06;5214255;27;20080;-74
2024/04/24 04:56:33;;;;;;;25.02;22.55;;;;;;;3.74;74.12;97470.25;5223362;27;20019;-73
2024/04/24 04:58:58;;;;;;;64.07;57.10;;;;;;;3.80;73.70;97469.38;5181139;27;20007;-74
2024/04/24 05:01:23;;;;;;;22.10;20.10;;;;;;;3.86;73.70;97469.31;5187134;27;20000;-73
2024/04/24 05:03:49;;;;;;;17.15;15.40;;;;;;;3.93;73.68;97467.41;5202777;27;19996;-73
2024/04/24 05:06:14;;;;;;;15.88;14.32;;;;;;;3.93;74.04;97475.41;5211989;27;20004;-74
2024/04/24 05:08:40;;;;;;;17.77;15.98;;;;;;;3.95;74.05;97483.16;5208841;27;20081;-74
2024/04/24 05:11:05;;;;;;;17.58;15.85;;;;;;;3.97;73.98;97476.56;5217861;27;20007;-74
2024/04/24 05:13:30;;;;;;;20.02;18.10;;;;;;;3.88;74.39;97477.91;5210922;27;20018;-73
2024/04/24 05:15:56;;;;;;;16.17;14.50;;;;;;;3.99;74.12;97474.50;5216913;27;20002;-74
2024/04/24 05:18:22;;;;;;;17.15;15.55;;;;;;;4.14;73.96;97482.97;5215197;27;20000;-74
2024/04/24 05:20:47;;;;;;;17.00;15.30;;;;;;;4.01;74.19;97471.63;5182012;27;20000;-74
2024/04/24 05:23:12;;;;;;;12.93;11.70;;;;;;;4.13;73.85;97486.66;5213911;27;20018;-75
2024/04/24 05:25:38;;;;;;;15.43;13.43;;;;;;;3.95;73.72;97462.66;5229571;27;20350;-75
2024/04/24 05:30:51;;;;;;;16.00;14.50;;;;;;;4.19;73.27;97479.63;5224734;27;20075;-75
2024/04/24 05:33:16;;;;;;;14.68;13.18;;;;;;;4.28;72.97;97477.47;5171521;27;20022;-75
2024/04/24 05:35:42;;;;;;;14.73;13.23;;;;;;;4.35;72.43;97475.56;5189667;27;20002;-75
2024/04/24 05:38:07;;;;;;;15.50;13.43;;;;;;;4.25;72.09;97453.97;5188927;27;20023;-75
2024/04/24 05:40:33;;;;;;;15.02;13.40;;;;;;;4.47;72.02;97481.78;5197768;27;20023;-75
2024/04/24 05:42:58;;;;;;;17.23;15.30;;;;;;;4.39;72.03;97464.22;5207225;27;20008;-75
2024/04/24 05:45:23;;;;;;;16.35;14.75;;;;;;;4.44;71.91;97461.72;5217127;27;20474;-75
2024/04/24 05:47:49;;;;;;;16.20;14.52;;;;;;;4.45;71.65;97454.53;5209041;27;20004;-76
2024/04/24 05:50:14;;;;;;;16.48;14.88;;;;;;;4.31;71.83;97431.75;5194839;27;20018;-75
2024/04/24 05:52:39;;;;;;;13.05;11.85;;;;;;;4.54;72.09;97456.69;5158971;27;20328;-75
2024/04/24 05:55:05;;;;;;;12.95;11.68;;;;;;;4.58;71.16;97462.34;5167370;27;20082;-75
2024/04/24 05:57:30;;;;;;;12.73;11.48;;;;;;;4.65;71.18;97463.09;5185819;27;20035;-75
2024/04/24 05:59:56;;;;;;;12.40;11.20;;;;;;;4.61;71.10;97448.59;5207449;27;20000;-75
2024/04/24 06:02:22;;;;;;;14.52;13.13;;;;;;;4.61;70.51;97462.75;5206406;27;20005;-75
2024/04/24 06:04:47;;;;;;;14.30;12.80;;;;;;;4.49;70.89;97442.38;5175717;27;20332;-75
2024/04/24 06:07:13;;;;;;;15.95;14.25;;;;;;;4.63;70.80;97449.19;5194513;27;19999;-75
2024/04/24 06:09:39;;;;;;;16.13;14.18;;;;;;;4.53;70.30;97428.38;5223259;27;20017;-75
2024/04/24 06:12:05;;;;;;;17.65;15.70;;;;;;;4.81;70.28;97465.13;5187785;27;20417;-75
2024/04/24 06:14:31;;;;;;;16.15;14.27;;;;;;;4.52;70.11;97447.28;5179789;27;20087;-75
2024/04/24 06:16:56;;;;;;;14.10;12.70;;;;;;;4.65;70.03;97461.25;5179648;27;20011;-75
2024/04/24 06:19:21;;;;;;;12.75;11.38;;;;;;;4.74;69.85;97446.56;5180626;27;20000;-75
2024/04/24 06:21:47;;;;;;;16.77;13.98;;;;;;;4.76;69.54;97457.03;5193675;27;20084;-75
2024/04/24 06:24:14;;;;;;;13.55;12.18;;;;;;;4.76;69.38;97454.34;5216749;27;20002;-75
2024/04/24 06:26:39;;;;;;;15.98;12.55;;;;;;;4.86;68.61;97444.75;5156873;27;20003;-75
2024/04/24 06:29:05;;;;;;;15.40;13.80;;;;;;;4.84;69.14;97443.34;5180681;27;20018;-75
2024/04/24 06:31:30;;;;;;;14.02;12.60;;;;;;;4.94;69.15;97456.16;5214827;27;19995;-75
2024/04/24 06:33:56;;;;;;;15.57;12.48;;;;;;;4.97;68.58;97453.81;5204398;27;20045;-76
2024/04/24 06:36:21;;;;;;;14.90;13.40;;;;;;;4.98;69.18;97449.31;5198709;27;20074;-75
2024/04/24 06:38:47;;;;;;;14.88;13.38;;;;;;;5.04;68.63;97445.75;5200186;27;20011;-76
2024/04/24 06:41:15;;;;;;;17.08;14.85;;;;;;;5.07;68.43;97446.09;5190477;27;20018;-76
2024/04/24 06:43:42;;;;;;;16.35;14.65;;;;;;;5.11;68.66;97455.25;5195908;27;20008;-76
2024/04/24 06:46:07;;;;;;;14.70;12.55;;;;;;;5.16;68.34;97458.06;5219111;27;20021;-76
2024/04/24 06:48:32;;;;;;;14.25;12.95;;;;;;;5.08;68.59;97450.41;5208884;27;20422;-77
2024/04/24 06:50:59;;;;;;;15.30;13.80;;;;;;;5.04;68.14;97429.75;5180070;27;20008;-77
2024/04/24 06:53:25;;;;;;;17.45;15.52;;;;;;;5.29;68.22;97455.22;5204770;27;20083;-76
2024/04/24 06:55:52;;;;;;;18.55;15.90;;;;;;;5.19;68.03;97444.28;5211167;27;20006;-76
2024/04/24 06:58:17;;;;;;;14.32;12.93;;;;;;;5.32;67.96;97454.72;5215774;27;20018;-76
2024/04/24 07:00:43;;;;;;;15.35;13.85;;;;;;;5.19;67.86;97422.09;5208285;27;20012;-76
2024/04/24 07:03:08;;;;;;;16.55;14.82;;;;;;;5.12;67.91;97410.72;5185349;27;20078;-76
2024/04/24 07:05:34;;;;;;;16.95;15.00;;;;;;;5.42;67.38;97444.31;5203948;27;20020;-76
2024/04/24 07:07:59;;;;;;;15.18;13.57;;;;;;;5.39;67.44;97434.09;5212386;27;20411;-76
2024/04/24 07:10:25;;;;;;;21.77;17.60;;;;;;;5.43;67.79;97456.63;5183297;27;20003;-76
2024/04/24 07:12:50;;;;;;;16.58;14.98;;;;;;;5.45;67.96;97437.69;5205408;27;19996;-77
2024/04/24 07:15:15;;;;;;;15.85;14.23;;;;;;;5.52;67.65;97433.88;5202124;27;20464;-76
2024/04/24 07:17:42;;;;;;;17.27;14.05;;;;;;;5.56;67.56;97443.06;5177914;27;20008;-76
2024/04/24 07:20:08;;;;;;;18.70;15.65;;;;;;;5.49;68.01;97418.31;5177150;27;19996;-76
2024/04/24 07:22:34;;;;;;;17.73;15.85;;;;;;;5.44;68.05;97431.53;5203636;27;20018;-76
2024/04/24 07:24:59;;;;;;;15.60;13.90;;;;;;;5.46;68.03;97434.78;5170038;27;19999;-76
2024/04/24 07:27:24;;;;;;;16.38;14.75;;;;;;;5.48;68.74;97414.00;5175091;27;19996;-76
2024/04/24 07:29:50;;;;;;;16.35;14.68;;;;;;;5.56;69.04;97424.38;5216881;27;20014;-75
2024/04/24 07:32:15;;;;;;;16.63;15.02;;;;;;;5.70;69.02;97434.81;5178035;27;20348;-76
2024/04/24 07:34:41;;;;;;;18.42;16.70;;;;;;;5.47;69.67;97411.59;5176676;27;20012;-76
2024/04/24 07:37:06;;;;;;;18.40;16.55;;;;;;;5.67;70.05;97435.28;5207619;27;20004;-76
2024/04/24 07:39:31;;;;;;;19.15;17.25;;;;;;;5.59;70.37;97421.25;5212183;27;19996;-76
2024/04/24 07:41:57;;;;;;;18.27;16.55;;;;;;;5.36;70.34;97378.50;5181411;27;20039;-76
2024/04/24 07:44:22;;;;;;;20.17;18.17;;;;;;;5.12;70.07;97326.13;5207946;27;20828;-76
2024/04/24 07:46:48;;;;;;;19.13;17.17;;;;;;;5.75;70.65;97419.72;5218170;27;20007;-76
2024/04/24 07:49:13;;;;;;;18.23;16.48;;;;;;;5.71;70.46;97415.91;5179821;27;20022;-76
2024/04/24 07:51:38;;;;;;;18.85;17.02;;;;;;;5.71;70.62;97401.72;5207208;27;20074;-76
2024/04/24 07:54:04;;;;;;;22.30;19.98;;;;;;;5.84;71.17;97404.13;5178969;27;20007;-75
2024/04/24 07:56:29;;;;;;;19.17;17.20;;;;;;;5.60;70.34;97393.47;5210860;27;20464;-76
2024/04/24 07:58:55;;;;;;;19.58;17.73;;;;;;;5.35;70.74;97386.72;5206740;27;20027;-75
2024/04/24 08:01:21;;;;;;;21.17;18.98;;;;;;;5.38;70.69;97389.75;5206688;27;20000;-76
2024/04/24 08:03:46;;;;;;;22.00;19.90;;;;;;;5.13;70.69;97365.13;5208266;27;20000;-76
2024/04/24 08:06:12;;;;;;;21.55;19.48;;;;;;;5.31;70.45;97413.09;5214645;27;20074;-75
2024/04/24 08:08:38;;;;;;;22.88;20.40;;;;;;;5.23;70.75;97408.06;5171553;27;20012;-75
2024/04/24 08:11:03;;;;;;;22.50;20.25;;;;;;;5.33;70.87;97420.84;5212241;27;20000;-75
2024/04/24 08:13:29;;;;;;;20.83;18.73;;;;;;;5.17;71.27;97409.00;5189874;27;20014;-75
2024/04/24 08:15:54;;;;;;;21.70;19.55;;;;;;;5.29;71.05;97412.50;5186441;27;20099;-76
2024/04/24 08:18:19;;;;;;;22.25;20.05;;;;;;;5.30;71.17;97403.44;5211973;27;20031;-76
2024/04/24 08:20:45;;;;;;;22.08;20.00;;;;;;;5.04;71.79;97381.72;5218113;27;20017;-76
2024/04/24 08:23:11;;;;;;;22.58;20.42;;;;;;;4.99;72.40;97411.75;5179345;27;20125;-75
2024/04/24 08:25:36;;;;;;;24.00;21.75;;;;;;;5.06;71.44;97379.63;5177157;27;20017;-76
2024/04/24 08:28:02;;;;;;;22.92;20.67;;;;;;;5.03;72.67;97420.09;5171864;27;20014;-76
2024/04/24 08:30:27;;;;;;;24.25;21.95;;;;;;;5.03;73.23;97428.09;5179858;27;20014;-75
2024/04/24 08:32:53;;;;;;;26.55;23.75;;;;;;;4.92;73.85;97416.38;5224009;27;19999;-76
2024/04/24 08:35:19;;;;;;;25.20;22.60;;;;;;;4.75;73.71;97394.03;5230165;27;20021;-75
2024/04/24 08:37:44;;;;;;;25.70;23.13;;;;;;;4.83;74.61;97429.19;5207190;27;20007;-76
2024/04/24 08:40:10;;;;;;;27.45;24.67;;;;;;;4.81;74.87;97433.13;5178475;27;20008;-76
2024/04/24 08:42:35;;;;;;;25.70;23.20;;;;;;;4.82;75.47;97437.44;5180473;27;20040;-76
2024/04/24 08:45:01;;;;;;;29.38;26.55;;;;;;;4.78;76.71;97422.94;5183605;27;20000;-76
2024/04/24 08:47:27;;;;;;;29.30;26.35;;;;;;;4.89;76.48;97416.81;5217235;27;20022;-76
2024/04/24 08:49:53;;;;;;;30.10;27.08;;;;;;;4.84;77.16;97419.34;5206538;27;20395;-76
2024/04/24 08:52:21;;;;;;;28.85;26.15;;;;;;;4.69;78.13;97429.63;5206211;27;20024;-76
2024/04/24 08:54:49;;;;;;;30.58;27.58;;;;;;;4.83;78.01;97428.41;5186598;27;20044;-76
2024/04/24 08:57:15;;;;;;;30.77;27.50;;;;;;;4.88;78.09;97428.50;5213619;27;20003;-76
2024/04/24 08:59:41;;;;;;;31.05;27.98;;;;;;;4.98;78.17;97426.13;5220445;27;20004;-75
2024/04/24 09:02:08;;;;;;;29.73;26.73;;;;;;;5.04;78.58;97433.19;5204383;27;20032;-75
2024/04/24 09:04:35;;;;;;;31.75;28.55;;;;;;;4.94;78.66;97398.28;5220485;27;20011;-75
2024/04/24 09:07:02;;;;;;;31.95;28.77;;;;;;;5.09;78.71;97425.31;5204955;27;20015;-75
2024/04/24 09:09:27;;;;;;;32.42;29.30;;;;;;;4.99;79.34;97414.41;5184005;27;20023;-76
2024/04/24 09:11:53;;;;;;;29.77;26.75;;;;;;;5.15;79.76;97424.44;5181092;27;20447;-75
2024/04/24 09:14:19;;;;;;;31.08;28.23;;;;;;;5.35;79.36;97422.25;5209703;27;20075;-75
2024/04/24 09:16:45;;;;;;;32.78;29.58;;;;;;;5.40;80.14;97402.88;5226325;27;20351;-76
2024/04/24 09:19:10;;;;;;;32.38;29.08;;;;;;;5.65;80.38;97406.13;5222514;27;20018;-75
2024/04/24 09:21:36;;;;;;;30.38;27.38;;;;;;;5.56;80.18;97381.63;5228210;27;20003;-75
2024/04/24 09:24:02;;;;;;;28.15;25.35;;;;;;;5.89;79.10;97414.97;5200767;27;20062;-74
2024/04/24 09:26:27;;;;;;;29.77;26.70;;;;;;;5.91;79.73;97404.88;5181882;27;20016;-74
2024/04/24 09:28:53;;;;;;;28.58;25.75;;;;;;;6.06;79.46;97406.03;5199385;27;20020;-74
2024/04/24 09:31:19;;;;;;;27.35;24.75;;;;;;;6.01;79.42;97399.75;5186257;27;20004;-75
2024/04/24 09:33:45;;;;;;;25.38;22.98;;;;;;;6.17;79.41;97405.19;5215565;27;20079;-75
2024/04/24 09:36:11;;;;;;;23.30;21.10;;;;;;;6.31;78.91;97400.38;5209086;27;20558;-76
2024/04/24 09:38:36;;;;;;;24.75;22.33;;;;;;;6.20;78.62;97390.53;5217264;27;19996;-76
2024/04/24 09:41:03;;;;;;;21.80;19.77;;;;;;;6.18;77.54;97406.00;5168650;27;20028;-75
2024/04/24 09:43:29;;;;;;;22.38;20.27;;;;;;;6.24;77.53;97383.66;5211381;27;20488;-75
2024/04/24 09:45:55;;;;;;;20.17;18.33;;;;;;;6.51;77.12;97405.34;5216279;27;20007;-75
2024/04/24 09:48:21;;;;;;;20.80;18.80;;;;;;;6.56;77.33;97406.22;5207297;27;20007;-75
2024/04/24 09:50:47;;;;;;;19.30;17.50;;;;;;;6.49;76.76;97384.16;5187089;27;20014;-75
2024/04/24 09:53:17;;;;;;;19.38;17.60;;;;;;;6.61;75.49;97389.47;5182277;27;20031;-75
2024/04/24 09:55:46;;;;;;;17.67;16.00;;;;;;;6.66;74.92;97395.72;5209176;27;20078;-76
2024/04/24 09:58:12;;;;;;;17.27;15.70;;;;;;;6.81;75.29;97385.28;5198227;27;20003;-76
2024/04/24 10:00:38;;;;;;;16.73;15.13;;;;;;;6.87;74.95;97389.69;5184906;27;20460;-76
2024/04/24 10:03:08;;;;;;;16.65;15.05;;;;;;;6.96;73.61;97404.31;5214676;27;20015;-75
2024/04/24 10:05:34;;;;;;;16.48;14.88;;;;;;;7.23;73.84;97382.28;5218603;27;20018;-75
2024/04/24 10:08:07;;;;;;;16.70;14.98;;;;;;;7.41;74.16;97390.88;5213163;27;20110;-75
2024/04/24 10:10:38;;;;;;;18.50;16.38;;;;;;;7.79;74.67;97370.56;5180466;27;20716;-76
2024/04/24 10:13:05;;;;;;;16.38;14.77;;;;;;;7.66;73.47;97359.13;5207400;27;20010;-75
2024/04/24 10:15:40;;;;;;;14.88;13.45;;;;;;;7.59;72.47;97341.59;5204320;27;20018;-75
2024/04/24 10:18:06;;;;;;;13.02;11.75;;;;;;;7.58;71.36;97348.00;5189866;27;19999;-76
2024/04/24 10:20:33;;;;;;;19.23;14.77;;;;;;;7.63;71.29;97340.06;5186873;27;20022;-76
2024/04/24 10:22:59;;;;;;;8.88;8.00;;;;;;;7.73;69.47;97361.63;5185625;27;20000;-75
2024/04/24 10:25:26;;;;;;;7.45;6.80;;;;;;;7.52;65.69;97339.09;5214988;27;20022;-75
2024/04/24 10:27:55;;;;;;;8.20;7.45;;;;;;;7.72;66.84;97316.31;5209183;27;20004;-75
2024/04/24 10:30:22;;;;;;;8.07;7.28;;;;;;;7.96;66.86;97326.53;5190914;27;20027;-75
2024/04/24 10:32:47;;;;;;;6.35;5.75;;;;;;;8.21;63.63;97332.22;5212859;27;20008;-76
2024/04/24 10:35:13;;;;;;;5.10;4.50;;;;;;;8.45;62.98;97323.94;5210715;27;20022;-75
2024/04/24 10:37:39;;;;;;;5.68;4.45;;;;;;;8.67;62.06;97313.97;5181716;27;20019;-76
2024/04/24 10:40:04;;;;;;;5.57;4.10;;;;;;;8.74;60.89;97317.25;5207783;27;20464;-75
2024/04/24 10:42:30;;;;;;;6.82;4.63;;;;;;;9.01;59.81;97299.22;5211081;27;20008;-75
2024/04/24 10:44:55;;;;;;;5.60;4.70;;;;;;;9.27;59.64;97314.50;5216257;27;20052;-75
2024/04/24 10:49:57;;;;;;;4.57;4.05;;;;;;;9.26;57.06;97296.78;5171689;27;20008;-72
2024/04/24 10:52:24;;;;;;;3.92;3.50;;;;;;;9.14;56.40;97303.38;5178233;27;20000;-72
2024/04/24 10:54:49;;;;;;;5.85;3.38;;;;;;;9.02;56.61;97303.56;5174142;27;20000;-72
2024/04/24 10:57:15;;;;;;;4.10;3.03;;;;;;;8.78;54.17;97291.50;5175606;27;20001;-72
2024/04/24 10:59:44;;;;;;;4.30;3.90;;;;;;;8.76;56.30;97307.06;5213558;27;20339;-72
2024/04/24 11:02:13;;;;;;;5.70;4.05;;;;;;;8.79;54.57;97306.56;5205987;27;19996;-72
2024/04/24 11:04:40;;;;;;;3.53;3.17;;;;;;;8.64;52.98;97293.00;5208238;27;20475;-71
2024/04/24 11:07:05;;;;;;;4.63;3.95;;;;;;;8.22;54.67;97266.78;5207952;27;19999;-70
2024/04/24 11:09:31;;;;;;;7.13;6.35;;;;;;;8.40;57.53;97276.41;5203315;27;20341;-72
2024/04/24 11:11:57;;;;;;;7.00;6.30;;;;;;;8.50;59.28;97297.16;5212650;27;20363;-70
2024/04/24 11:14:22;;;;;;;6.97;6.05;;;;;;;8.47;59.85;97297.69;5229335;27;20078;-71
2024/04/24 11:16:57;;;;;;;6.97;6.32;;;;;;;8.38;60.42;97288.47;5180424;27;20011;-71
2024/04/24 11:19:23;;;;;;;7.47;6.77;;;;;;;8.43;60.87;97281.25;5209961;27;20000;-71
2024/04/24 11:21:48;;;;;;;7.25;5.82;;;;;;;8.23;60.48;97286.38;5180196;27;20498;-71
2024/04/24 11:24:14;;;;;;;6.97;6.30;;;;;;;8.16;60.82;97269.69;5210834;27;20018;-71
2024/04/24 11:26:39;;;;;;;6.45;5.85;;;;;;;8.66;60.58;97251.41;5179895;27;20441;-72